METAR Data
IDs: Format: Raw Decoded Include TAF

Data at: 0123 UTC 24 Sep 2018

KBRD 240053Z AUTO 08011G18KT 10SM OVC010 11/08 A2995 RMK AO2 SLP147 T01110083
KBRD 232353Z AUTO 08009G17KT 10SM OVC013 12/08 A2995 RMK AO2 SLP146 T01170083 10139 20117 58013
KBRD 232253Z AUTO 07011G18KT 10SM OVC013 12/08 A2995 RMK AO2 SLP148 T01220083
KBRD 232231Z AUTO 09010G22KT 060V120 10SM OVC014 12/08 A2996 RMK AO2 T01220083
KBRD 232153Z AUTO 08011G17KT 10SM OVC016 13/08 A2998 RMK AO2 SLP159 T01280083
KBRD 232053Z AUTO 08009KT 10SM OVC016 13/09 A2999 RMK AO2 SLP159 T01330089 56021
KBRD 232014Z AUTO 08010G16KT 10SM OVC015 13/08 A3000 RMK AO2 T01330083
KBRD 231953Z AUTO 09012G19KT 070V130 10SM OVC014 13/08 A3000 RMK AO2 SLP165 T01280083
KBRD 231853Z AUTO 11008G17KT 10SM OVC011 13/08 A3003 RMK AO2 SLP174 T01280083
KBRD 231753Z AUTO 07008G14KT 10SM OVC010 12/08 A3005 RMK AO2 SLP180 T01220083 10128 20094 58008
KBRD 231653Z AUTO 07010G17KT 10SM OVC011 12/08 A3007 RMK AO2 SLP187 T01170083
KBRD 231553Z AUTO 07008KT 10SM OVC012 12/09 A3009 RMK AO2 SLP193 T01220089
KBRD 231453Z AUTO 07007KT 10SM OVC010 12/09 A3007 RMK AO2 CIG 008V015 SLP189 T01220094 53015
KBRD 231353Z AUTO 07007KT 10SM OVC010 12/09 A3006 RMK AO2 SLP183 T01170089
KBRD 231343Z AUTO 06007KT 10SM BKN011 11/09 A3006 RMK AO2 T01110089
KBRD 231253Z AUTO 09004KT 10SM CLR 11/09 A3004 RMK AO2 SLP176 T01060089
KBRD 231153Z AUTO VRB03KT 10SM CLR 09/08 A3003 RMK AO2 SLP172 T00940078 10117 20083 58002
KBRD 231053Z AUTO 05003KT 10SM CLR 09/07 A3003 RMK AO2 SLP171 T00940072
KBRD 230953Z AUTO 04003KT 10SM CLR 09/07 A3003 RMK AO2 SLP174 T00940072
KBRD 230853Z AUTO 03006KT 10SM BKN060 11/08 A3003 RMK AO2 SLP173 T01110078 53003
KBRD 230753Z AUTO 17003KT 10SM OVC060 11/08 A3002 RMK AO2 SLP169 T01110078
KBRD 230653Z AUTO 00000KT 10SM SCT060 09/07 A3002 RMK AO2 SLP170 T00940067
KBRD 230553Z AUTO 14004KT 10SM CLR 11/07 A3002 RMK AO2 SLP171 T01060072 10156 20106 401830022 57005
KBRD 230453Z AUTO 14006KT 10SM CLR 12/08 A3003 RMK AO2 SLP172 T01170078
KBRD 230353Z AUTO 13006KT 10SM CLR 12/08 A3003 RMK AO2 SLP174 T01220078
KBRD 230253Z AUTO 13006KT 10SM CLR 12/08 A3004 RMK AO2 SLP176 T01220078 50006
KBRD 230153Z AUTO 00000KT 10SM CLR 11/09 A3005 RMK AO2 SLP182 T01110089
KBRD 230053Z AUTO 00000KT 10SM OVC120 13/09 A3004 RMK AO2 SLP178 T01280089
KBRD 222353Z AUTO 15003KT 10SM OVC110 16/07 A3002 RMK AO2 SLP170 60000 T01560072 10183 20150 56010
KBRD 222253Z AUTO 18008KT 10SM OVC110 18/07 A3002 RMK AO2 SLP170 T01780072
KBRD 222153Z AUTO 19011KT 10SM OVC100 17/07 A3003 RMK AO2 RAB09E18 SLP174 P0000 T01720067
KBRD 222053Z AUTO 18013KT 10SM BKN100 17/06 A3005 RMK AO2 SLP182 T01720061 56030
KBRD 221953Z AUTO 18013KT 10SM BKN110 18/06 A3007 RMK AO2 SLP189 T01780061
KBRD 221853Z AUTO 19015G20KT 10SM CLR 17/06 A3011 RMK AO2 SLP204 T01670061
KBRD 221753Z AUTO 19014G19KT 10SM OVC110 15/06 A3014 RMK AO2 SLP214 T01500056 10161 20067 58026
KBRD 221653Z AUTO 21016G24KT 10SM CLR 15/06 A3018 RMK AO2 SLP226 T01500056
KBRD 221553Z AUTO 19013KT 10SM CLR 13/06 A3021 RMK AO2 SLP236 T01330056
KBRD 221453Z AUTO 20013G21KT 10SM FEW080 12/05 A3022 RMK AO2 SLP242 T01170050 58007
KBRD 221353Z AUTO 20009KT 10SM BKN100 09/04 A3023 RMK AO2 SLP246 T00890044